Time;durP1;ratioP1;P1;durP2;ratioP2;P2;SDS_P1;SDS_P2;PMS_P1;PMS_P2;Temp;Humidity;BMP_temperature;BMP_pressure;BME280_temperature;BME280_humidity;BME280_pressure;Samples;Min_cycle;Max_cycle;Signal;HPM_P1;HPM_P2
2022/05/27 00:02:25;;;;;;;11.40;8.80;;;14.70;99.90;;;;;;5013615;28;20455;-62
2022/05/27 00:04:52;;;;;;;11.53;8.40;;;14.70;99.90;;;;;;5013692;28;20805;-63
2022/05/27 00:07:19;;;;;;;12.30;9.17;;;14.70;99.90;;;;;;5013653;28;20480;-63
2022/05/27 00:09:48;;;;;;;16.03;8.97;;;14.70;99.90;;;;;;5013614;28;20476;-62
2022/05/27 00:12:15;;;;;;;9.97;7.97;;;14.70;99.90;;;;;;5013326;28;20444;-62
2022/05/27 00:14:42;;;;;;;10.47;8.93;;;14.80;99.90;;;;;;5013121;28;21041;-62
2022/05/27 00:17:09;;;;;;;11.13;7.70;;;14.80;99.90;;;;;;5013337;28;20873;-63
2022/05/27 00:19:37;;;;;;;10.07;7.00;;;14.80;99.90;;;;;;5013361;28;20476;-62
2022/05/27 00:22:04;;;;;;;9.73;6.40;;;14.90;99.90;;;;;;5013713;28;20458;-63
2022/05/27 00:24:31;;;;;;;10.23;6.97;;;14.90;99.90;;;;;;5014103;28;20474;-62
2022/05/27 00:27:01;;;;;;;10.20;7.50;;;14.90;99.90;;;;;;5017950;28;20455;-63
2022/05/27 00:29:28;;;;;;;10.50;7.10;;;15.00;99.90;;;;;;5017536;28;20987;-62
2022/05/27 00:31:55;;;;;;;8.27;7.37;;;15.00;99.90;;;;;;5017434;28;20452;-62
2022/05/27 00:34:22;;;;;;;10.80;7.47;;;14.90;99.90;;;;;;5017451;28;20479;-61
2022/05/27 00:36:49;;;;;;;9.00;8.07;;;14.80;99.90;;;;;;5017623;28;20947;-63
2022/05/27 00:39:16;;;;;;;9.17;8.10;;;14.70;99.90;;;;;;5016956;28;20988;-62
2022/05/27 00:41:43;;;;;;;14.10;8.30;;;14.60;99.90;;;;;;5017420;28;20432;-63
2022/05/27 00:44:12;;;;;;;12.60;8.23;;;14.60;99.90;;;;;;5017298;28;20459;-63
2022/05/27 00:46:43;;;;;;;9.97;7.30;;;14.60;99.90;;;;;;5016867;28;20862;-62
2022/05/27 00:49:13;;;;;;;10.90;8.30;;;14.60;99.90;;;;;;5017026;28;20476;-63
2022/05/27 00:51:46;;;;;;;9.90;8.37;;;14.50;99.90;;;;;;5017247;28;20852;-62
2022/05/27 00:54:16;;;;;;;11.73;8.97;;;14.60;99.90;;;;;;5017314;28;20472;-63
2022/05/27 00:56:46;;;;;;;9.73;8.70;;;14.60;99.90;;;;;;5017072;28;20994;-62
2022/05/27 00:59:19;;;;;;;12.70;8.93;;;14.60;99.90;;;;;;5017128;28;20468;-63
2022/05/27 01:01:46;;;;;;;14.40;10.03;;;14.60;99.90;;;;;;5017439;28;20794;-64
2022/05/27 01:04:13;;;;;;;16.47;10.27;;;14.50;99.90;;;;;;5017057;28;20455;-63
2022/05/27 01:06:40;;;;;;;10.60;9.50;;;14.50;99.90;;;;;;5016807;28;20462;-63
2022/05/27 01:09:08;;;;;;;15.20;11.23;;;14.40;99.90;;;;;;5016616;28;20451;-63
2022/05/27 01:11:52;;;;;;;15.17;10.83;;;14.40;99.90;;;;;;5016785;28;20463;-63
2022/05/27 01:14:28;;;;;;;12.43;9.90;;;14.40;99.90;;;;;;5016509;28;20471;-63
2022/05/27 01:17:05;;;;;;;11.93;10.47;;;14.40;99.90;;;;;;5016415;28;20440;-63
2022/05/27 01:20:22;;;;;;;12.67;9.80;;;14.30;99.90;;;;;;5016751;28;20479;-62
2022/05/27 01:23:18;;;;;;;12.67;9.53;;;14.30;99.90;;;;;;5013473;28;20546;-63
2022/05/27 01:26:25;;;;;;;12.77;11.33;;;14.30;99.90;;;;;;5016402;28;20425;-63
2022/05/27 01:28:57;;;;;;;15.83;11.17;;;14.20;99.90;;;;;;4974914;28;20568;-65
2022/05/27 01:31:32;;;;;;;14.60;11.97;;;14.20;99.90;;;;;;5010601;28;20506;-63
2022/05/27 01:34:08;;;;;;;13.57;11.77;;;14.20;99.90;;;;;;5015968;28;20446;-64
2022/05/27 01:36:45;;;;;;;16.60;12.40;;;14.20;99.90;;;;;;5015605;28;20427;-64
2022/05/27 01:39:17;;;;;;;13.13;11.83;;;14.10;99.90;;;;;;5016126;28;20464;-64
2022/05/27 01:41:48;;;;;;;15.17;13.57;;;14.10;99.90;;;;;;5016350;28;20446;-63
2022/05/27 01:44:22;;;;;;;14.00;12.60;;;14.10;99.90;;;;;;5016398;28;20423;-64
2022/05/27 01:46:50;;;;;;;15.40;12.27;;;14.10;99.90;;;;;;5016415;28;20447;-63
2022/05/27 01:49:26;;;;;;;15.43;13.57;;;14.00;99.90;;;;;;5015790;28;20463;-63
2022/05/27 01:51:57;;;;;;;16.33;14.60;;;14.00;99.90;;;;;;5015626;28;20439;-63
2022/05/27 01:54:32;;;;;;;15.50;13.87;;;14.00;99.90;;;;;;5015857;28;20472;-63
2022/05/27 01:57:04;;;;;;;18.53;14.60;;;14.00;99.90;;;;;;5015921;28;20432;-63
2022/05/27 01:59:37;;;;;;;18.27;15.10;;;14.00;99.90;;;;;;5015847;28;20484;-63
2022/05/27 02:02:11;;;;;;;16.70;14.50;;;14.00;99.90;;;;;;5015769;28;20436;-63
2022/05/27 02:04:42;;;;;;;17.93;14.70;;;13.90;99.90;;;;;;5015710;28;20823;-63
2022/05/27 02:07:16;;;;;;;18.47;15.83;;;13.90;99.90;;;;;;5015652;28;20502;-65
2022/05/27 02:09:46;;;;;;;17.57;15.77;;;13.90;99.90;;;;;;5015182;28;20479;-64
2022/05/27 02:12:25;;;;;;;19.27;15.73;;;13.90;99.90;;;;;;5015852;28;20455;-64
2022/05/27 02:14:57;;;;;;;17.10;14.00;;;13.90;99.90;;;;;;5015163;28;20508;-65
2022/05/27 02:17:28;;;;;;;16.67;14.97;;;13.90;99.90;;;;;;5015336;28;20428;-65
2022/05/27 02:20:00;;;;;;;16.33;14.57;;;13.90;99.90;;;;;;5015317;28;20483;-64
2022/05/27 02:22:31;;;;;;;15.07;13.27;;;13.90;99.90;;;;;;5015673;28;20432;-64
2022/05/27 02:25:02;;;;;;;14.63;12.07;;;13.90;99.90;;;;;;5015487;28;20424;-63
2022/05/27 02:27:35;;;;;;;13.43;12.13;;;13.90;99.90;;;;;;5015249;28;20435;-64
2022/05/27 02:30:12;;;;;;;20.10;12.60;;;13.80;99.90;;;;;;5015313;28;20462;-66
2022/05/27 02:32:45;;;;;;;11.90;10.70;;;13.80;99.90;;;;;;5015060;28;20438;-65
2022/05/27 02:35:15;;;;;;;7.57;6.77;;;13.70;99.90;;;;;;5015187;28;20474;-66
2022/05/27 02:37:45;;;;;;;3.80;3.43;;;13.70;99.90;;;;;;5014906;28;20444;-65
2022/05/27 02:40:15;;;;;;;5.33;3.60;;;13.50;99.90;;;;;;5014958;28;20841;-64
2022/05/27 02:42:58;;;;;;;3.83;3.53;;;13.20;99.90;;;;;;5015475;28;20462;-65
2022/05/27 02:45:36;;;;;;;3.70;2.97;;;13.10;99.90;;;;;;5014729;28;20439;-65
2022/05/27 02:48:11;;;;;;;5.80;3.00;;;12.90;99.90;;;;;;5014166;28;20435;-64
2022/05/27 02:50:44;;;;;;;3.00;2.60;;;12.80;99.90;;;;;;5015733;28;20474;-64
2022/05/27 02:53:20;;;;;;;4.13;2.97;;;12.70;99.90;;;;;;5015797;28;20424;-64
2022/05/27 02:56:01;;;;;;;2.50;2.30;;;12.60;99.90;;;;;;5015710;28;20471;-64
2022/05/27 02:58:30;;;;;;;12.10;3.80;;;12.50;99.90;;;;;;5016163;28;20432;-66
2022/05/27 03:00:58;;;;;;;4.63;3.17;;;12.50;99.90;;;;;;5015825;28;20468;-66
2022/05/27 03:03:26;;;;;;;3.73;3.17;;;12.50;99.90;;;;;;5015433;28;20454;-65
2022/05/27 03:06:20;;;;;;;7.83;3.90;;;12.50;99.90;;;;;;5015219;28;20815;-66
2022/05/27 03:08:56;;;;;;;6.20;3.67;;;12.50;99.90;;;;;;5009458;28;20482;-65
2022/05/27 03:11:34;;;;;;;4.93;3.87;;;12.50;99.90;;;;;;5014387;28;20437;-65
2022/05/27 03:14:33;;;;;;;4.27;3.80;;;12.50;99.90;;;;;;5014357;28;20435;-65
2022/05/27 03:17:14;;;;;;;6.50;4.23;;;12.50;99.90;;;;;;5013940;28;20961;-64
2022/05/27 03:19:54;;;;;;;5.80;4.50;;;12.40;99.90;;;;;;5014517;28;20480;-65
2022/05/27 03:22:31;;;;;;;4.60;4.00;;;12.40;99.90;;;;;;5014483;28;20439;-64
2022/05/27 03:25:13;;;;;;;4.23;3.93;;;12.40;99.90;;;;;;5014369;28;20423;-64
2022/05/27 03:27:45;;;;;;;4.23;3.10;;;12.40;99.90;;;;;;5014048;28;20423;-63
2022/05/27 03:30:17;;;;;;;5.03;3.30;;;12.30;99.90;;;;;;5014325;28;20481;-64
2022/05/27 03:32:49;;;;;;;3.50;3.17;;;12.30;99.90;;;;;;5014000;28;20431;-65
2022/05/27 03:35:27;;;;;;;3.47;2.93;;;12.30;99.90;;;;;;5013966;28;20463;-65
2022/05/27 03:38:01;;;;;;;2.70;2.50;;;12.30;99.90;;;;;;5013954;28;20432;-64
2022/05/27 03:40:33;;;;;;;3.27;2.87;;;12.30;99.90;;;;;;5047594;22;20615;-61
2022/05/27 03:43:03;;;;;;;5.07;2.60;;;12.30;99.90;;;;;;5033799;28;20434;-61
2022/05/27 03:45:30;;;;;;;2.83;2.57;;;12.30;99.90;;;;;;5033560;28;20447;-61
2022/05/27 03:47:57;;;;;;;5.10;3.03;;;12.30;99.90;;;;;;5033370;28;20458;-61
2022/05/27 03:50:27;;;;;;;6.60;2.70;;;12.30;99.90;;;;;;5033284;28;20454;-60
2022/05/27 03:52:56;;;;;;;4.10;3.17;;;12.30;99.90;;;;;;5033357;28;20448;-61
2022/05/27 03:55:26;;;;;;;2.90;2.70;;;12.30;99.90;;;;;;5033448;28;20482;-61
2022/05/27 03:57:53;;;;;;;3.33;3.00;;;12.30;99.90;;;;;;5033455;28;20458;-61
2022/05/27 04:00:21;;;;;;;3.93;3.43;;;12.30;99.90;;;;;;5032706;28;20472;-61
2022/05/27 04:02:48;;;;;;;3.53;3.23;;;12.40;99.90;;;;;;5033812;28;20441;-61
2022/05/27 04:05:18;;;;;;;3.17;2.87;;;12.40;99.90;;;;;;5033523;28;20450;-62
2022/05/27 04:09:48;;;;;;;4.17;3.77;;;12.50;99.90;;;;;;5091340;27;20543;-62
2022/05/27 04:12:15;;;;;;;5.93;3.50;;;12.50;99.90;;;;;;5090917;28;20456;-63
2022/05/27 04:14:43;;;;;;;5.13;3.30;;;12.60;99.90;;;;;;5090660;28;20444;-61
2022/05/27 04:19:53;;;;;;;4.37;3.97;;;12.70;99.90;;;;;;5076953;28;20484;-63
2022/05/27 04:22:21;;;;;;;4.90;4.40;;;12.70;99.90;;;;;;5090683;28;20515;-62
2022/05/27 04:24:49;;;;;;;4.20;3.83;;;12.80;99.90;;;;;;5090379;28;20456;-61
2022/05/27 04:27:18;;;;;;;5.40;4.20;;;12.80;99.90;;;;;;5090205;28;20441;-62
2022/05/27 04:29:48;;;;;;;5.87;4.00;;;12.90;99.90;;;;;;5090227;28;20515;-62
2022/05/27 04:32:15;;;;;;;5.97;5.37;;;12.90;99.90;;;;;;5090622;28;20444;-61
2022/05/27 04:34:43;;;;;;;5.60;5.10;;;12.90;99.90;;;;;;5090738;28;20790;-63
2022/05/27 04:37:11;;;;;;;5.80;4.80;;;12.90;99.90;;;;;;5090395;28;20441;-62
2022/05/27 04:39:39;;;;;;;4.43;4.03;;;13.00;99.90;;;;;;5090271;28;20449;-62
2022/05/27 04:42:08;;;;;;;6.87;5.17;;;13.00;99.90;;;;;;5090490;28;20467;-62
2022/05/27 04:44:35;;;;;;;4.47;4.17;;;13.00;99.90;;;;;;5090198;28;20480;-62
2022/05/27 04:47:03;;;;;;;7.20;4.37;;;13.10;99.90;;;;;;5090079;28;20451;-63
2022/05/27 04:52:15;;;;;;;4.80;4.40;;;13.00;99.90;;;;;;5090149;28;20774;-62
2022/05/27 04:54:43;;;;;;;7.03;5.00;;;13.10;99.90;;;;;;5090014;28;20457;-63
2022/05/27 04:57:15;;;;;;;6.50;4.50;;;13.10;99.90;;;;;;5089519;28;20819;-63
2022/05/27 04:59:42;;;;;;;6.10;4.37;;;13.10;99.90;;;;;;5089720;28;20464;-63
2022/05/27 05:02:09;;;;;;;5.53;4.70;;;13.10;99.90;;;;;;5089511;28;20488;-64
2022/05/27 05:04:36;;;;;;;5.23;4.50;;;13.10;99.90;;;;;;5089681;28;20475;-63
2022/05/27 05:07:07;;;;;;;7.63;4.03;;;13.20;99.90;;;;;;5088468;28;20451;-64
2022/05/27 05:09:35;;;;;;;6.13;4.77;;;13.20;99.90;;;;;;5074392;28;20507;-63
2022/05/27 05:12:02;;;;;;;5.83;3.97;;;13.20;99.90;;;;;;5076353;28;20463;-61
2022/05/27 05:14:31;;;;;;;9.97;4.90;;;13.20;99.90;;;;;;5071927;28;20456;-62
2022/05/27 05:16:58;;;;;;;6.30;4.83;;;13.30;99.90;;;;;;5070394;28;20449;-62
2022/05/27 05:19:25;;;;;;;4.30;3.90;;;13.30;99.90;;;;;;5085645;28;20469;-62
2022/05/27 05:21:53;;;;;;;7.90;5.00;;;13.30;99.90;;;;;;5075828;28;20485;-62
2022/05/27 05:24:20;;;;;;;7.07;4.83;;;13.40;99.90;;;;;;5075725;28;20460;-62
2022/05/27 05:26:47;;;;;;;4.33;3.93;;;13.60;99.90;;;;;;5075678;28;20489;-62
2022/05/27 05:29:14;;;;;;;6.13;4.30;;;13.80;99.90;;;;;;5072858;28;20972;-62
2022/05/27 05:31:43;;;;;;;7.20;4.33;;;14.10;99.90;;;;;;5069193;28;20902;-62
2022/05/27 05:34:10;;;;;;;4.40;3.50;;;14.40;99.90;;;;;;5075647;28;20951;-61
2022/05/27 05:36:38;;;;;;;6.73;3.90;;;14.50;99.90;;;;;;5075571;28;20546;-60
2022/05/27 05:39:05;;;;;;;5.43;4.80;;;14.40;99.90;;;;;;5075350;28;20481;-62
2022/05/27 05:41:35;;;;;;;6.47;4.30;;;14.40;99.90;;;;;;5075669;28;20457;-61
2022/05/27 05:44:02;;;;;;;8.83;4.17;;;14.30;99.90;;;;;;5075505;28;20826;-62
2022/05/27 05:46:32;;;;;;;5.23;3.77;;;14.20;99.90;;;;;;5075103;28;20464;-61
2022/05/27 05:49:01;;;;;;;5.73;3.77;;;14.20;99.90;;;;;;5074358;28;20573;-62
2022/05/27 05:51:28;;;;;;;7.03;4.10;;;14.20;99.90;;;;;;5075291;28;20469;-61
2022/05/27 05:53:55;;;;;;;5.17;3.93;;;14.30;99.90;;;;;;5075121;28;20442;-63
2022/05/27 05:56:23;;;;;;;8.67;4.87;;;14.30;99.90;;;;;;5075137;28;20445;-62
2022/05/27 05:58:51;;;;;;;8.43;3.80;;;14.40;99.90;;;;;;5075074;28;20535;-62
2022/05/27 06:01:18;;;;;;;6.03;3.67;;;14.50;99.90;;;;;;5075091;28;20508;-62
2022/05/27 06:03:45;;;;;;;8.97;3.73;;;14.50;99.90;;;;;;5075547;28;20492;-60
2022/05/27 06:06:14;;;;;;;4.40;3.83;;;14.60;99.90;;;;;;5068087;28;20543;-61
2022/05/27 06:08:42;;;;;;;6.53;3.40;;;14.70;99.90;;;;;;5055045;28;20485;-60
2022/05/27 06:11:09;;;;;;;4.33;3.30;;;14.70;99.90;;;;;;5055290;28;20465;-61
2022/05/27 06:13:37;;;;;;;5.93;3.10;;;14.70;99.90;;;;;;5055279;28;20477;-60
2022/05/27 06:16:05;;;;;;;9.90;3.40;;;14.80;99.90;;;;;;5055380;28;20875;-60
2022/05/27 06:18:32;;;;;;;7.33;3.60;;;15.00;99.90;;;;;;5055121;28;20438;-60
2022/05/27 06:21:00;;;;;;;4.50;4.07;;;15.20;99.90;;;;;;5055089;28;20500;-60
2022/05/27 06:23:28;;;;;;;6.97;3.90;;;15.20;99.90;;;;;;5055368;28;20955;-62
2022/05/27 06:25:56;;;;;;;5.60;3.83;;;15.20;99.90;;;;;;5054635;28;20537;-62
2022/05/27 06:36:37;;;;;;;7.03;3.57;;;15.30;99.90;;;;;;5054304;28;20405;-61
2022/05/27 06:39:07;;;;;;;9.93;3.80;;;15.50;99.90;;;;;;5054604;28;20541;-61
2022/05/27 06:41:35;;;;;;;7.90;3.53;;;15.50;99.90;;;;;;5058981;28;20481;-61
2022/05/27 06:44:03;;;;;;;5.23;3.30;;;15.50;99.90;;;;;;5074126;28;20939;-60
2022/05/27 06:46:30;;;;;;;8.57;4.10;;;15.40;99.90;;;;;;5074819;28;20456;-62
2022/05/27 06:48:57;;;;;;;7.27;3.60;;;15.40;99.90;;;;;;5074854;28;20999;-61
2022/05/27 06:51:25;;;;;;;6.40;3.87;;;15.30;99.90;;;;;;5059265;28;20490;-61
2022/05/27 06:53:53;;;;;;;7.00;4.23;;;15.30;99.90;;;;;;5053591;28;20463;-61
2022/05/27 06:56:22;;;;;;;4.50;3.43;;;15.30;99.90;;;;;;5069832;28;20966;-60
2022/05/27 06:58:49;;;;;;;4.90;3.33;;;15.20;99.90;;;;;;5073824;28;20445;-61
2022/05/27 07:01:16;;;;;;;6.80;3.27;;;15.40;99.90;;;;;;5073949;28;20483;-61
2022/05/27 07:03:43;;;;;;;5.80;3.80;;;15.60;99.90;;;;;;5074108;28;20448;-60
2022/05/27 07:06:12;;;;;;;8.33;4.10;;;15.80;99.90;;;;;;5074626;28;20450;-62
2022/05/27 07:08:39;;;;;;;6.43;3.30;;;15.90;99.90;;;;;;5074042;28;20487;-61
2022/05/27 07:11:07;;;;;;;10.30;3.73;;;16.00;99.90;;;;;;5072223;28;20485;-60
2022/05/27 07:13:35;;;;;;;7.57;2.63;;;16.10;99.80;;;;;;5073159;28;20967;-60
2022/05/27 07:16:04;;;;;;;7.40;2.93;;;16.20;98.00;;;;;;5073599;28;20464;-60
2022/05/27 07:18:32;;;;;;;7.00;3.40;;;16.40;97.50;;;;;;5073344;28;20576;-60
2022/05/27 07:21:03;;;;;;;4.53;2.53;;;16.50;96.10;;;;;;5073465;28;20522;-60
2022/05/27 07:23:31;;;;;;;7.13;3.17;;;16.60;95.30;;;;;;5072217;28;20824;-61
2022/05/27 07:25:58;;;;;;;6.90;2.70;;;16.50;93.80;;;;;;5053585;28;20822;-58
2022/05/27 07:28:26;;;;;;;5.03;2.60;;;16.70;93.40;;;;;;5053153;28;20446;-58
2022/05/27 07:30:56;;;;;;;6.23;2.30;;;16.90;91.40;;;;;;5053032;28;20488;-60
2022/05/27 07:33:23;;;;;;;5.90;2.20;;;16.80;85.90;;;;;;5053266;28;21010;-60
2022/05/27 07:35:51;;;;;;;5.20;2.30;;;16.60;81.80;;;;;;5052988;28;20800;-60
2022/05/27 07:38:18;;;;;;;6.57;2.53;;;16.40;81.30;;;;;;5061700;28;20510;-60
2022/05/27 07:40:45;;;;;;;10.87;2.73;;;16.40;80.20;;;;;;5052779;28;20477;-60
2022/05/27 07:43:13;;;;;;;7.87;3.10;;;16.30;80.10;;;;;;5052374;28;21216;-62
2022/05/27 07:45:42;;;;;;;6.70;3.00;;;16.40;81.60;;;;;;5053258;28;20450;-61
2022/05/27 07:48:12;;;;;;;8.37;2.40;;;16.30;80.20;;;;;;5054062;28;20888;-60
2022/05/27 07:50:40;;;;;;;8.93;3.70;;;16.10;77.30;;;;;;5060246;28;20484;-60
2022/05/27 07:53:07;;;;;;;7.10;2.80;;;16.10;75.50;;;;;;5073312;28;20449;-60
2022/05/27 07:55:35;;;;;;;3.83;2.13;;;16.10;75.80;;;;;;5073472;28;20457;-59
2022/05/27 07:58:02;;;;;;;4.90;2.20;;;16.10;76.30;;;;;;5072312;28;20793;-59
2022/05/27 08:00:31;;;;;;;7.53;2.77;;;16.20;75.60;;;;;;5072798;28;20468;-60
2022/05/27 08:02:59;;;;;;;6.67;2.20;;;16.20;76.00;;;;;;5072419;28;20441;-59
2022/05/27 08:05:29;;;;;;;6.70;2.83;;;16.20;76.90;;;;;;5070340;28;20486;-59
2022/05/27 08:07:58;;;;;;;5.63;3.27;;;16.40;76.60;;;;;;5072413;28;20461;-59
2022/05/27 08:10:28;;;;;;;6.00;2.53;;;16.50;74.40;;;;;;5072005;28;20542;-59
2022/05/27 08:12:55;;;;;;;4.80;2.60;;;16.70;71.40;;;;;;5072390;28;20445;-60
2022/05/27 08:15:22;;;;;;;5.33;2.50;;;16.80;68.50;;;;;;5072921;28;20453;-60
2022/05/27 08:17:49;;;;;;;4.40;2.53;;;16.80;67.90;;;;;;5067743;28;20489;-60
2022/05/27 08:20:22;;;;;;;4.33;2.27;;;16.80;68.10;;;;;;5052612;28;20473;-59
2022/05/27 08:22:53;;;;;;;6.53;2.00;;;16.80;67.10;;;;;;5052760;28;20442;-59
2022/05/27 08:25:21;;;;;;;9.07;2.40;;;16.70;65.20;;;;;;5052756;28;20438;-60
2022/05/27 08:27:48;;;;;;;6.27;2.67;;;16.70;64.50;;;;;;5052645;28;20450;-59
2022/05/27 08:30:18;;;;;;;4.37;2.40;;;16.70;64.50;;;;;;5071755;28;21014;-60
2022/05/27 08:32:47;;;;;;;3.90;2.10;;;16.60;64.80;;;;;;5072472;28;20472;-59
2022/05/27 08:38:08;;;;;;;7.13;2.10;;;16.90;63.30;;;;;;5052648;28;20466;-58
2022/05/27 08:40:59;;;;;;;3.33;1.93;;;17.10;63.20;;;;;;5062622;28;20722;-60
2022/05/27 08:43:34;;;;;;;6.00;2.20;;;17.30;60.20;;;;;;5067180;28;20430;-59
2022/05/27 08:46:09;;;;;;;5.57;2.07;;;17.40;58.00;;;;;;5072866;28;20932;-60
2022/05/27 08:48:42;;;;;;;4.50;2.20;;;17.40;57.10;;;;;;5073185;28;20437;-61
2022/05/27 08:51:17;;;;;;;5.13;2.00;;;17.40;56.50;;;;;;5070928;28;20458;-57
2022/05/27 08:53:52;;;;;;;4.40;1.60;;;17.40;55.50;;;;;;5072377;28;20437;-56
2022/05/27 08:59:28;;;;;;;5.57;2.10;;;17.50;51.00;;;;;;5075182;28;20433;-56
2022/05/27 09:01:58;;;;;;;7.33;2.13;;;17.50;49.20;;;;;;5076637;28;20425;-56
2022/05/27 09:04:34;;;;;;;5.77;1.83;;;17.40;48.20;;;;;;5076451;28;20449;-56
2022/05/27 09:07:07;;;;;;;4.90;1.90;;;17.30;48.40;;;;;;5075901;28;20429;-58
2022/05/27 09:09:37;;;;;;;3.30;2.20;;;17.30;48.70;;;;;;5074040;28;20489;-57
2022/05/27 09:12:26;;;;;;;6.97;2.20;;;17.30;48.20;;;;;;5072498;28;20963;-59
2022/05/27 09:15:01;;;;;;;4.50;1.87;;;17.40;47.90;;;;;;5076810;28;20426;-57
2022/05/27 09:17:39;;;;;;;4.53;1.80;;;17.50;47.90;;;;;;5076289;28;20436;-59
2022/05/27 09:20:17;;;;;;;4.23;1.80;;;17.70;47.70;;;;;;5076438;28;20458;-56
2022/05/27 09:22:52;;;;;;;4.23;2.17;;;17.90;47.30;;;;;;5076338;28;20420;-58
2022/05/27 09:25:26;;;;;;;5.83;2.23;;;18.10;47.40;;;;;;5075383;28;20434;-57
2022/05/27 09:28:02;;;;;;;8.63;2.50;;;18.20;46.60;;;;;;5076734;28;20462;-57
2022/05/27 09:30:33;;;;;;;6.40;2.33;;;18.10;46.80;;;;;;5076049;28;20578;-57
2022/05/27 09:33:04;;;;;;;5.30;2.10;;;17.90;47.50;;;;;;5075172;28;20450;-57
2022/05/27 09:35:37;;;;;;;5.90;2.10;;;17.90;48.30;;;;;;5075835;28;20489;-62
2022/05/27 09:38:06;;;;;;;5.30;2.70;;;18.00;48.30;;;;;;5075680;28;20442;-59
2022/05/27 09:40:43;;;;;;;4.97;2.00;;;18.00;48.30;;;;;;5073212;28;20482;-59
2022/05/27 09:43:15;;;;;;;5.07;2.27;;;17.90;48.70;;;;;;5063477;28;20466;-60
2022/05/27 09:45:43;;;;;;;7.50;2.07;;;17.80;48.80;;;;;;5073552;28;21032;-59
2022/05/27 09:48:11;;;;;;;6.27;2.30;;;17.50;49.10;;;;;;5073820;28;20511;-61
2022/05/27 09:50:41;;;;;;;6.70;2.03;;;17.20;49.90;;;;;;5074459;28;20992;-61
2022/05/27 09:53:12;;;;;;;5.23;2.13;;;17.10;50.70;;;;;;5075088;28;20457;-59
2022/05/27 09:55:48;;;;;;;8.40;2.67;;;17.10;51.30;;;;;;5074938;28;20496;-60
2022/05/27 09:58:24;;;;;;;6.37;2.37;;;17.20;51.80;;;;;;5075478;28;20431;-61
2022/05/27 10:00:51;;;;;;;5.87;2.67;;;17.40;52.50;;;;;;5074795;28;20473;-61
2022/05/27 10:03:24;;;;;;;10.20;3.00;;;17.30;53.80;;;;;;5074687;28;20902;-61
2022/05/27 10:05:53;;;;;;;5.43;2.40;;;17.30;55.30;;;;;;5075058;28;20443;-62
2022/05/27 10:08:33;;;;;;;6.90;2.17;;;17.20;56.70;;;;;;5074471;28;20473;-61
2022/05/27 10:11:23;;;;;;;5.77;2.43;;;17.20;58.30;;;;;;5075039;28;20489;-60
2022/05/27 10:14:08;;;;;;;7.50;2.63;;;17.30;57.90;;;;;;5075039;28;20434;-60
2022/05/27 10:16:36;;;;;;;5.30;2.47;;;17.40;57.90;;;;;;5074807;28;20462;-60
2022/05/27 10:19:10;;;;;;;6.93;2.10;;;17.50;57.20;;;;;;5074599;28;20972;-60
2022/05/27 10:21:53;;;;;;;7.20;2.37;;;17.80;56.90;;;;;;5074914;28;20889;-60
2022/05/27 10:24:24;;;;;;;7.77;2.50;;;18.20;55.70;;;;;;5073027;28;20450;-60
2022/05/27 10:27:09;;;;;;;7.53;3.00;;;18.40;54.20;;;;;;5074248;28;20439;-60
2022/05/27 10:29:50;;;;;;;8.00;2.50;;;18.50;53.20;;;;;;5074250;28;20891;-60
2022/05/27 10:32:31;;;;;;;10.20;2.40;;;18.30;53.10;;;;;;5075458;28;20489;-60
2022/05/27 10:35:00;;;;;;;8.60;2.40;;;18.00;53.70;;;;;;5074726;28;20438;-60
2022/05/27 10:37:40;;;;;;;11.70;3.40;;;17.70;54.80;;;;;;5074294;28;20819;-60
2022/05/27 10:40:17;;;;;;;3.60;2.00;;;17.60;55.70;;;;;;5074429;28;20462;-60
2022/05/27 10:42:56;;;;;;;5.33;2.67;;;17.40;56.20;;;;;;5074052;28;20521;-60
2022/05/27 10:45:31;;;;;;;6.30;2.07;;;17.60;56.30;;;;;;5074193;28;20707;-61
2022/05/27 10:48:33;;;;;;;6.20;2.07;;;17.70;53.50;;;;;;5074121;28;20533;-61
2022/05/27 10:51:08;;;;;;;4.73;2.27;;;17.90;53.10;;;;;;5068294;28;20488;-59
2022/05/27 10:53:56;;;;;;;5.93;2.50;;;18.10;52.00;;;;;;5073769;28;20438;-60
2022/05/27 10:56:37;;;;;;;4.63;2.10;;;18.30;51.00;;;;;;5073700;28;20434;-61
2022/05/27 11:02:20;;;;;;;4.50;1.40;;;18.70;47.60;;;;;;5073668;28;20430;-60
2022/05/27 11:05:13;;;;;;;6.63;1.80;;;18.80;44.00;;;;;;5073990;28;20445;-60
2022/05/27 11:07:49;;;;;;;5.30;2.00;;;18.80;43.10;;;;;;5073610;28;20458;-60
2022/05/27 11:10:39;;;;;;;5.10;1.80;;;18.80;42.40;;;;;;5073732;28;20484;-61
2022/05/27 11:16:18;;;;;;;6.70;1.80;;;18.80;42.30;;;;;;5074003;28;20407;-62
2022/05/27 11:19:02;;;;;;;5.67;2.23;;;18.50;42.60;;;;;;5073053;28;20428;-60
2022/05/27 11:21:53;;;;;;;7.10;2.37;;;18.40;43.30;;;;;;5073126;28;20998;-60
2022/05/27 11:24:47;;;;;;;6.07;1.97;;;18.50;43.40;;;;;;5073262;28;20454;-60
2022/05/27 11:27:26;;;;;;;5.63;2.03;;;18.40;42.30;;;;;;5073301;28;20427;-60
2022/05/27 11:30:04;;;;;;;9.60;2.10;;;18.40;41.80;;;;;;5072787;28;20724;-60
2022/05/27 11:32:53;;;;;;;4.80;1.50;;;18.50;41.20;;;;;;5072350;28;20803;-60
2022/05/27 11:35:31;;;;;;;4.60;2.03;;;18.80;40.40;;;;;;5072834;28;20435;-60
2022/05/27 11:38:10;;;;;;;6.00;2.70;;;18.90;40.10;;;;;;5072880;28;20439;-60
2022/05/27 11:40:49;;;;;;;5.27;2.13;;;18.80;40.60;;;;;;5073324;28;20539;-61
2022/05/27 11:43:41;;;;;;;7.50;2.40;;;18.60;41.10;;;;;;5072662;28;20542;-61
2022/05/27 11:46:32;;;;;;;6.33;2.40;;;18.40;41.60;;;;;;5072778;28;20457;-60
2022/05/27 11:49:20;;;;;;;7.60;2.33;;;18.10;42.10;;;;;;5072270;28;20435;-60
2022/05/27 11:51:57;;;;;;;7.30;1.63;;;18.00;42.90;;;;;;5072377;28;20463;-60
2022/05/27 11:54:45;;;;;;;5.00;2.30;;;18.40;42.50;;;;;;5072722;28;20439;-60
2022/05/27 11:57:29;;;;;;;3.83;1.77;;;19.00;40.60;;;;;;5073208;28;20426;-60
2022/05/27 12:00:02;;;;;;;8.60;2.00;;;19.80;39.90;;;;;;5072661;28;20483;-60
2022/05/27 12:02:36;;;;;;;6.60;1.97;;;20.30;38.80;;;;;;5072763;28;20888;-60
2022/05/27 12:05:11;;;;;;;6.93;2.60;;;20.50;37.50;;;;;;5073154;28;20426;-60
2022/05/27 12:07:45;;;;;;;8.63;3.10;;;20.60;37.10;;;;;;5071380;28;20455;-60
2022/05/27 12:10:23;;;;;;;5.73;2.63;;;20.60;37.20;;;;;;5073146;28;20487;-60
2022/05/27 12:12:56;;;;;;;4.63;2.30;;;20.50;37.30;;;;;;5072797;28;20446;-60
2022/05/27 12:15:27;;;;;;;4.87;2.47;;;20.20;37.80;;;;;;5054212;28;20467;-60
2022/05/27 12:17:57;;;;;;;7.13;2.60;;;20.10;38.60;;;;;;5052107;28;20438;-59
2022/05/27 12:20:30;;;;;;;4.57;2.80;;;20.20;38.70;;;;;;5051686;28;20526;-61
2022/05/27 12:22:59;;;;;;;6.37;2.30;;;20.60;38.40;;;;;;5052077;28;20429;-59
2022/05/27 12:25:30;;;;;;;7.53;2.80;;;20.90;37.80;;;;;;5052121;28;20456;-60
2022/05/27 12:28:00;;;;;;;4.90;2.30;;;21.10;37.80;;;;;;5051676;28;20445;-60
2022/05/27 12:30:31;;;;;;;5.73;2.03;;;20.90;37.70;;;;;;5053566;28;20498;-60
2022/05/27 12:32:59;;;;;;;8.63;3.27;;;20.60;38.40;;;;;;5055345;28;20460;-59
2022/05/27 12:35:44;;;;;;;4.00;2.33;;;20.60;39.00;;;;;;5055510;28;20950;-60
2022/05/27 12:38:15;;;;;;;6.23;2.40;;;20.50;39.50;;;;;;5055513;28;20960;-60
2022/05/27 12:40:47;;;;;;;8.23;2.40;;;20.60;39.60;;;;;;5056529;28;20471;-60
2022/05/27 12:43:24;;;;;;;4.27;1.63;;;20.50;38.20;;;;;;5056227;28;20432;-60
2022/05/27 12:45:53;;;;;;;7.10;1.67;;;20.40;37.70;;;;;;5055871;28;20440;-61
2022/05/27 12:48:31;;;;;;;5.83;2.07;;;20.30;37.70;;;;;;5055923;28;20933;-59
2022/05/27 12:51:03;;;;;;;4.80;1.70;;;20.30;37.70;;;;;;5055566;28;20491;-60
2022/05/27 12:53:45;;;;;;;4.43;1.80;;;20.30;38.10;;;;;;5055320;28;20464;-61
2022/05/27 13:02:48;;;;;;;2.70;1.20;;;19.70;37.40;;;;;;5075880;28;20512;-61
2022/05/27 13:05:21;;;;;;;6.40;1.67;;;19.50;37.20;;;;;;5075976;28;20432;-61
2022/05/27 13:07:52;;;;;;;5.83;1.50;;;19.30;37.40;;;;;;5075869;28;20459;-61
2022/05/27 13:10:51;;;;;;;5.40;1.60;;;19.20;37.50;;;;;;5075700;28;20872;-60
2022/05/27 13:13:24;;;;;;;4.90;1.80;;;19.20;37.60;;;;;;5075547;28;20524;-60
2022/05/27 13:16:03;;;;;;;2.30;1.67;;;19.10;37.50;;;;;;5075745;28;20485;-59
2022/05/27 13:18:40;;;;;;;3.90;1.80;;;19.10;37.50;;;;;;5075782;28;20430;-61
2022/05/27 13:21:13;;;;;;;2.93;1.43;;;19.10;37.90;;;;;;5075388;28;20463;-61
2022/05/27 13:24:00;;;;;;;6.30;2.17;;;19.20;38.30;;;;;;5076106;28;20434;-58
2022/05/27 13:26:36;;;;;;;4.00;1.37;;;19.30;37.90;;;;;;5076512;28;20420;-64
2022/05/27 13:29:25;;;;;;;1.90;1.27;;;19.20;36.80;;;;;;5075535;28;20423;-62
2022/05/27 13:31:57;;;;;;;6.20;1.80;;;19.10;36.80;;;;;;5075409;28;20483;-64
2022/05/27 13:34:32;;;;;;;3.37;1.70;;;19.10;37.10;;;;;;5075575;28;20486;-64
2022/05/27 13:37:03;;;;;;;6.60;2.27;;;19.00;37.40;;;;;;5076231;28;20797;-63
2022/05/27 13:39:38;;;;;;;7.27;1.70;;;18.90;37.80;;;;;;5074853;28;20435;-64
2022/05/27 13:42:11;;;;;;;3.30;1.70;;;18.70;37.90;;;;;;5074827;28;20780;-64
2022/05/27 13:44:41;;;;;;;3.10;1.50;;;18.70;37.80;;;;;;5075632;28;20504;-63
2022/05/27 13:47:15;;;;;;;3.77;1.97;;;18.80;37.60;;;;;;5076008;28;20446;-63